sensor_id;sensor_type;location;lat;lon;timestamp;temperature;humidity
17715;DHT22;8977;50.902;4.314;2023-06-10T00:01:40;25.30;99.00
17715;DHT22;8977;50.902;4.314;2023-06-10T00:04:08;25.30;99.10
17715;DHT22;8977;50.902;4.314;2023-06-10T00:06:35;25.30;99.10
17715;DHT22;8977;50.902;4.314;2023-06-10T00:09:03;25.30;99.10
17715;DHT22;8977;50.902;4.314;2023-06-10T00:11:31;25.30;99.10
17715;DHT22;8977;50.902;4.314;2023-06-10T00:13:59;25.30;99.10
17715;DHT22;8977;50.902;4.314;2023-06-10T00:16:26;25.20;99.00
17715;DHT22;8977;50.902;4.314;2023-06-10T00:18:53;25.20;99.30
17715;DHT22;8977;50.902;4.314;2023-06-10T00:21:22;25.20;99.00
17715;DHT22;8977;50.902;4.314;2023-06-10T00:23:50;25.20;99.10
17715;DHT22;8977;50.902;4.314;2023-06-10T00:26:17;25.20;99.00
17715;DHT22;8977;50.902;4.314;2023-06-10T00:28:44;25.20;98.90
17715;DHT22;8977;50.902;4.314;2023-06-10T00:31:11;25.10;98.90
17715;DHT22;8977;50.902;4.314;2023-06-10T00:33:38;25.10;99.00
17715;DHT22;8977;50.902;4.314;2023-06-10T00:36:05;25.10;99.00
17715;DHT22;8977;50.902;4.314;2023-06-10T00:38:33;25.10;99.00
17715;DHT22;8977;50.902;4.314;2023-06-10T00:41:00;25.10;99.10
17715;DHT22;8977;50.902;4.314;2023-06-10T00:43:27;25.10;99.10
17715;DHT22;8977;50.902;4.314;2023-06-10T00:45:54;25.00;99.10
17715;DHT22;8977;50.902;4.314;2023-06-10T00:48:21;25.00;99.20
17715;DHT22;8977;50.902;4.314;2023-06-10T00:50:48;25.00;99.30
17715;DHT22;8977;50.902;4.314;2023-06-10T00:53:15;25.00;99.30
17715;DHT22;8977;50.902;4.314;2023-06-10T00:55:44;25.00;99.20
17715;DHT22;8977;50.902;4.314;2023-06-10T00:58:11;24.90;99.30
17715;DHT22;8977;50.902;4.314;2023-06-10T01:00:38;24.90;99.30
17715;DHT22;8977;50.902;4.314;2023-06-10T01:03:05;24.90;99.30
17715;DHT22;8977;50.902;4.314;2023-06-10T01:05:33;24.90;99.30
17715;DHT22;8977;50.902;4.314;2023-06-10T01:08:06;24.90;99.40
17715;DHT22;8977;50.902;4.314;2023-06-10T01:10:38;24.80;99.40
17715;DHT22;8977;50.902;4.314;2023-06-10T01:13:10;24.80;99.50
17715;DHT22;8977;50.902;4.314;2023-06-10T01:15:38;24.80;99.50
17715;DHT22;8977;50.902;4.314;2023-06-10T01:18:07;24.70;99.50
17715;DHT22;8977;50.902;4.314;2023-06-10T01:20:42;24.70;99.50
17715;DHT22;8977;50.902;4.314;2023-06-10T01:23:11;24.70;99.60
17715;DHT22;8977;50.902;4.314;2023-06-10T01:25:39;24.70;99.50
17715;DHT22;8977;50.902;4.314;2023-06-10T01:28:14;24.70;99.70
17715;DHT22;8977;50.902;4.314;2023-06-10T01:30:48;24.60;99.90
17715;DHT22;8977;50.902;4.314;2023-06-10T01:33:24;24.60;99.70
17715;DHT22;8977;50.902;4.314;2023-06-10T01:35:53;24.60;99.70
17715;DHT22;8977;50.902;4.314;2023-06-10T01:38:23;24.60;99.70
17715;DHT22;8977;50.902;4.314;2023-06-10T01:40:52;24.60;99.70
17715;DHT22;8977;50.902;4.314;2023-06-10T01:43:20;24.60;99.50
17715;DHT22;8977;50.902;4.314;2023-06-10T01:45:47;24.60;99.60
17715;DHT22;8977;50.902;4.314;2023-06-10T01:48:14;24.60;99.90
17715;DHT22;8977;50.902;4.314;2023-06-10T01:50:41;24.60;99.70
17715;DHT22;8977;50.902;4.314;2023-06-10T01:53:09;24.50;99.70
17715;DHT22;8977;50.902;4.314;2023-06-10T01:55:37;24.50;99.70
17715;DHT22;8977;50.902;4.314;2023-06-10T01:58:04;24.50;99.70
17715;DHT22;8977;50.902;4.314;2023-06-10T02:00:31;24.50;99.70
17715;DHT22;8977;50.902;4.314;2023-06-10T02:02:59;24.50;99.90
17715;DHT22;8977;50.902;4.314;2023-06-10T02:05:25;24.50;99.80
17715;DHT22;8977;50.902;4.314;2023-06-10T02:07:52;24.40;99.80
17715;DHT22;8977;50.902;4.314;2023-06-10T02:10:19;24.50;99.90
17715;DHT22;8977;50.902;4.314;2023-06-10T02:12:48;24.40;99.90
17715;DHT22;8977;50.902;4.314;2023-06-10T02:15:15;24.40;99.90
17715;DHT22;8977;50.902;4.314;2023-06-10T02:17:42;24.30;99.90
17715;DHT22;8977;50.902;4.314;2023-06-10T02:20:11;24.30;99.90
17715;DHT22;8977;50.902;4.314;2023-06-10T02:22:39;24.30;99.90
17715;DHT22;8977;50.902;4.314;2023-06-10T02:25:07;24.30;99.90
17715;DHT22;8977;50.902;4.314;2023-06-10T02:27:34;24.30;99.90
17715;DHT22;8977;50.902;4.314;2023-06-10T02:30:02;24.30;99.90
17715;DHT22;8977;50.902;4.314;2023-06-10T02:32:29;24.30;99.90
17715;DHT22;8977;50.902;4.314;2023-06-10T02:34:57;24.20;99.90
17715;DHT22;8977;50.902;4.314;2023-06-10T02:37:25;24.20;99.90
17715;DHT22;8977;50.902;4.314;2023-06-10T02:39:52;24.20;99.90
17715;DHT22;8977;50.902;4.314;2023-06-10T02:42:19;24.20;99.90
17715;DHT22;8977;50.902;4.314;2023-06-10T02:44:46;24.20;99.90
17715;DHT22;8977;50.902;4.314;2023-06-10T02:47:14;24.10;99.90
17715;DHT22;8977;50.902;4.314;2023-06-10T02:49:41;24.10;99.90
17715;DHT22;8977;50.902;4.314;2023-06-10T02:52:08;24.10;99.90
17715;DHT22;8977;50.902;4.314;2023-06-10T02:54:37;24.00;99.90
17715;DHT22;8977;50.902;4.314;2023-06-10T02:57:04;24.10;99.90
17715;DHT22;8977;50.902;4.314;2023-06-10T02:59:31;24.00;99.90
17715;DHT22;8977;50.902;4.314;2023-06-10T03:01:58;24.00;99.90
17715;DHT22;8977;50.902;4.314;2023-06-10T03:04:28;24.00;99.90
17715;DHT22;8977;50.902;4.314;2023-06-10T03:06:56;24.00;99.90
17715;DHT22;8977;50.902;4.314;2023-06-10T03:09:23;24.00;99.90
17715;DHT22;8977;50.902;4.314;2023-06-10T03:11:50;24.00;99.90
17715;DHT22;8977;50.902;4.314;2023-06-10T03:14:17;24.00;99.90
17715;DHT22;8977;50.902;4.314;2023-06-10T03:16:44;23.90;99.90
17715;DHT22;8977;50.902;4.314;2023-06-10T03:19:11;23.90;99.90
17715;DHT22;8977;50.902;4.314;2023-06-10T03:21:43;23.90;99.90
17715;DHT22;8977;50.902;4.314;2023-06-10T03:24:10;23.90;99.90
17715;DHT22;8977;50.902;4.314;2023-06-10T03:26:39;23.90;99.90
17715;DHT22;8977;50.902;4.314;2023-06-10T03:29:06;23.90;99.90
17715;DHT22;8977;50.902;4.314;2023-06-10T03:31:33;23.90;99.90
17715;DHT22;8977;50.902;4.314;2023-06-10T03:34:00;23.80;99.90
17715;DHT22;8977;50.902;4.314;2023-06-10T03:36:27;23.90;99.90
17715;DHT22;8977;50.902;4.314;2023-06-10T03:38:57;23.80;99.90
17715;DHT22;8977;50.902;4.314;2023-06-10T03:41:24;23.90;99.90
17715;DHT22;8977;50.902;4.314;2023-06-10T03:43:51;23.80;99.90
17715;DHT22;8977;50.902;4.314;2023-06-10T03:46:18;23.80;99.90
17715;DHT22;8977;50.902;4.314;2023-06-10T03:48:45;23.80;99.90
17715;DHT22;8977;50.902;4.314;2023-06-10T03:51:12;23.80;99.90
17715;DHT22;8977;50.902;4.314;2023-06-10T03:53:38;23.80;99.90
17715;DHT22;8977;50.902;4.314;2023-06-10T03:56:07;23.80;99.90
17715;DHT22;8977;50.902;4.314;2023-06-10T03:58:34;23.80;99.90
17715;DHT22;8977;50.902;4.314;2023-06-10T04:01:01;23.70;99.90
17715;DHT22;8977;50.902;4.314;2023-06-10T04:03:29;23.70;99.90
17715;DHT22;8977;50.902;4.314;2023-06-10T04:05:55;23.70;99.90
17715;DHT22;8977;50.902;4.314;2023-06-10T04:08:22;23.70;99.90
17715;DHT22;8977;50.902;4.314;2023-06-10T04:10:49;23.70;99.90
17715;DHT22;8977;50.902;4.314;2023-06-10T04:13:17;23.70;99.90
17715;DHT22;8977;50.902;4.314;2023-06-10T04:15:45;23.70;99.90
17715;DHT22;8977;50.902;4.314;2023-06-10T04:18:12;23.60;99.90
17715;DHT22;8977;50.902;4.314;2023-06-10T04:20:39;23.60;99.90
17715;DHT22;8977;50.902;4.314;2023-06-10T04:23:05;23.70;99.90
17715;DHT22;8977;50.902;4.314;2023-06-10T04:25:33;23.60;99.90
17715;DHT22;8977;50.902;4.314;2023-06-10T04:28:00;23.70;99.90
17715;DHT22;8977;50.902;4.314;2023-06-10T04:30:28;23.60;99.90
17715;DHT22;8977;50.902;4.314;2023-06-10T04:32:56;23.60;99.90
17715;DHT22;8977;50.902;4.314;2023-06-10T04:35:23;23.60;99.90
17715;DHT22;8977;50.902;4.314;2023-06-10T04:37:52;23.60;99.90
17715;DHT22;8977;50.902;4.314;2023-06-10T04:40:19;23.60;99.90
17715;DHT22;8977;50.902;4.314;2023-06-10T04:42:46;23.60;99.90
17715;DHT22;8977;50.902;4.314;2023-06-10T04:45:13;23.60;99.90
17715;DHT22;8977;50.902;4.314;2023-06-10T04:47:41;23.60;99.90
17715;DHT22;8977;50.902;4.314;2023-06-10T04:50:09;23.60;99.90
17715;DHT22;8977;50.902;4.314;2023-06-10T04:52:36;23.60;99.90
17715;DHT22;8977;50.902;4.314;2023-06-10T04:55:03;23.60;99.90
17715;DHT22;8977;50.902;4.314;2023-06-10T04:57:30;23.60;99.90
17715;DHT22;8977;50.902;4.314;2023-06-10T04:59:57;23.60;99.90
17715;DHT22;8977;50.902;4.314;2023-06-10T05:02:24;23.60;99.90
17715;DHT22;8977;50.902;4.314;2023-06-10T05:04:52;23.60;99.90
17715;DHT22;8977;50.902;4.314;2023-06-10T05:07:20;23.60;99.90
17715;DHT22;8977;50.902;4.314;2023-06-10T05:09:47;23.60;99.90
17715;DHT22;8977;50.902;4.314;2023-06-10T05:12:14;23.60;99.90
17715;DHT22;8977;50.902;4.314;2023-06-10T05:14:41;23.60;99.90
17715;DHT22;8977;50.902;4.314;2023-06-10T05:17:07;23.60;99.90
17715;DHT22;8977;50.902;4.314;2023-06-10T05:19:34;23.60;99.90
17715;DHT22;8977;50.902;4.314;2023-06-10T05:22:04;23.60;99.90
17715;DHT22;8977;50.902;4.314;2023-06-10T05:24:31;23.60;99.90
17715;DHT22;8977;50.902;4.314;2023-06-10T05:26:58;23.60;99.90
17715;DHT22;8977;50.902;4.314;2023-06-10T05:29:25;23.60;99.90
17715;DHT22;8977;50.902;4.314;2023-06-10T05:31:52;23.70;99.90
17715;DHT22;8977;50.902;4.314;2023-06-10T05:34:22;23.70;99.90
17715;DHT22;8977;50.902;4.314;2023-06-10T05:36:49;23.70;99.90
17715;DHT22;8977;50.902;4.314;2023-06-10T05:39:17;23.80;99.90
17715;DHT22;8977;50.902;4.314;2023-06-10T05:41:45;23.80;99.90
17715;DHT22;8977;50.902;4.314;2023-06-10T05:44:12;23.80;99.90
17715;DHT22;8977;50.902;4.314;2023-06-10T05:46:39;23.80;99.90
17715;DHT22;8977;50.902;4.314;2023-06-10T05:49:06;23.80;99.90
17715;DHT22;8977;50.902;4.314;2023-06-10T05:51:33;23.80;99.90
17715;DHT22;8977;50.902;4.314;2023-06-10T05:54:00;23.90;99.90
17715;DHT22;8977;50.902;4.314;2023-06-10T05:56:29;23.80;99.90
17715;DHT22;8977;50.902;4.314;2023-06-10T05:58:56;23.90;99.90
17715;DHT22;8977;50.902;4.314;2023-06-10T06:01:23;23.90;99.90
17715;DHT22;8977;50.902;4.314;2023-06-10T06:03:50;23.90;99.90
17715;DHT22;8977;50.902;4.314;2023-06-10T06:06:17;23.90;99.90
17715;DHT22;8977;50.902;4.314;2023-06-10T06:08:46;23.90;99.90
17715;DHT22;8977;50.902;4.314;2023-06-10T06:11:12;24.00;99.90
17715;DHT22;8977;50.902;4.314;2023-06-10T06:13:41;24.00;99.90
17715;DHT22;8977;50.902;4.314;2023-06-10T06:16:08;24.00;99.90
17715;DHT22;8977;50.902;4.314;2023-06-10T06:18:35;24.00;99.90
17715;DHT22;8977;50.902;4.314;2023-06-10T06:21:02;24.10;99.90
17715;DHT22;8977;50.902;4.314;2023-06-10T06:23:29;24.10;99.90
17715;DHT22;8977;50.902;4.314;2023-06-10T06:25:56;24.10;99.90
17715;DHT22;8977;50.902;4.314;2023-06-10T06:28:23;24.20;99.90
17715;DHT22;8977;50.902;4.314;2023-06-10T06:30:55;24.20;99.90
17715;DHT22;8977;50.902;4.314;2023-06-10T06:33:22;24.20;99.90
17715;DHT22;8977;50.902;4.314;2023-06-10T06:35:49;24.20;99.90
17715;DHT22;8977;50.902;4.314;2023-06-10T06:38:16;24.30;99.90
17715;DHT22;8977;50.902;4.314;2023-06-10T06:40:43;24.30;99.90
17715;DHT22;8977;50.902;4.314;2023-06-10T06:43:10;24.30;99.90
17715;DHT22;8977;50.902;4.314;2023-06-10T06:45:37;24.30;99.90
17715;DHT22;8977;50.902;4.314;2023-06-10T06:48:05;24.30;99.90
17715;DHT22;8977;50.902;4.314;2023-06-10T06:50:32;24.30;99.90
17715;DHT22;8977;50.902;4.314;2023-06-10T06:52:59;24.30;99.90
17715;DHT22;8977;50.902;4.314;2023-06-10T06:55:26;24.40;99.90
17715;DHT22;8977;50.902;4.314;2023-06-10T06:57:53;24.40;99.90
17715;DHT22;8977;50.902;4.314;2023-06-10T07:00:20;24.40;99.90
17715;DHT22;8977;50.902;4.314;2023-06-10T07:02:48;24.50;99.90
17715;DHT22;8977;50.902;4.314;2023-06-10T07:05:16;24.50;99.90
17715;DHT22;8977;50.902;4.314;2023-06-10T07:07:43;24.50;99.90
17715;DHT22;8977;50.902;4.314;2023-06-10T07:10:10;24.50;99.90
17715;DHT22;8977;50.902;4.314;2023-06-10T07:12:37;24.60;99.90
17715;DHT22;8977;50.902;4.314;2023-06-10T07:15:05;24.60;99.90
17715;DHT22;8977;50.902;4.314;2023-06-10T07:17:32;24.70;99.90
17715;DHT22;8977;50.902;4.314;2023-06-10T07:20:00;24.60;99.90
17715;DHT22;8977;50.902;4.314;2023-06-10T07:22:28;24.70;99.90
17715;DHT22;8977;50.902;4.314;2023-06-10T07:24:55;24.70;99.90
17715;DHT22;8977;50.902;4.314;2023-06-10T07:27:22;24.70;99.90
17715;DHT22;8977;50.902;4.314;2023-06-10T07:29:49;24.70;99.90
17715;DHT22;8977;50.902;4.314;2023-06-10T07:32:16;24.80;99.90
17715;DHT22;8977;50.902;4.314;2023-06-10T07:34:43;24.80;99.90
17715;DHT22;8977;50.902;4.314;2023-06-10T07:37:10;24.90;99.90
17715;DHT22;8977;50.902;4.314;2023-06-10T07:39:38;24.90;99.90
17715;DHT22;8977;50.902;4.314;2023-06-10T07:42:06;24.90;99.90
17715;DHT22;8977;50.902;4.314;2023-06-10T07:44:33;25.00;99.90
17715;DHT22;8977;50.902;4.314;2023-06-10T07:47:00;25.00;99.90
17715;DHT22;8977;50.902;4.314;2023-06-10T07:49:27;25.00;99.90
17715;DHT22;8977;50.902;4.314;2023-06-10T07:51:54;25.10;99.90
17715;DHT22;8977;50.902;4.314;2023-06-10T07:54:21;25.10;99.90
17715;DHT22;8977;50.902;4.314;2023-06-10T07:56:49;25.10;99.90
17715;DHT22;8977;50.902;4.314;2023-06-10T07:59:18;25.20;99.90
17715;DHT22;8977;50.902;4.314;2023-06-10T08:01:45;25.10;99.90
17715;DHT22;8977;50.902;4.314;2023-06-10T08:04:12;25.20;99.90
17715;DHT22;8977;50.902;4.314;2023-06-10T08:06:40;25.30;99.90
17715;DHT22;8977;50.902;4.314;2023-06-10T08:09:06;25.30;99.90
17715;DHT22;8977;50.902;4.314;2023-06-10T08:11:34;25.30;99.90
17715;DHT22;8977;50.902;4.314;2023-06-10T08:14:02;25.40;99.90
17715;DHT22;8977;50.902;4.314;2023-06-10T08:16:29;25.40;99.90
17715;DHT22;8977;50.902;4.314;2023-06-10T08:18:56;25.50;99.90
17715;DHT22;8977;50.902;4.314;2023-06-10T08:21:22;25.50;99.90
17715;DHT22;8977;50.902;4.314;2023-06-10T08:23:52;25.50;99.90
17715;DHT22;8977;50.902;4.314;2023-06-10T08:26:19;25.60;99.90
17715;DHT22;8977;50.902;4.314;2023-06-10T08:28:46;25.60;99.80
17715;DHT22;8977;50.902;4.314;2023-06-10T08:31:15;25.60;99.90
17715;DHT22;8977;50.902;4.314;2023-06-10T08:33:42;25.60;99.90
17715;DHT22;8977;50.902;4.314;2023-06-10T08:36:09;25.70;99.90
17715;DHT22;8977;50.902;4.314;2023-06-10T08:38:36;25.70;99.90
17715;DHT22;8977;50.902;4.314;2023-06-10T08:41:05;25.80;99.90
17715;DHT22;8977;50.902;4.314;2023-06-10T08:43:34;25.80;99.50
17715;DHT22;8977;50.902;4.314;2023-06-10T08:46:03;25.80;99.70
17715;DHT22;8977;50.902;4.314;2023-06-10T08:48:34;25.80;99.90
17715;DHT22;8977;50.902;4.314;2023-06-10T08:51:04;25.90;99.50
17715;DHT22;8977;50.902;4.314;2023-06-10T08:53:34;25.90;99.70
17715;DHT22;8977;50.902;4.314;2023-06-10T08:56:04;26.00;99.50
17715;DHT22;8977;50.902;4.314;2023-06-10T08:58:32;26.00;99.20
17715;DHT22;8977;50.902;4.314;2023-06-10T09:01:05;26.10;99.30
17715;DHT22;8977;50.902;4.314;2023-06-10T09:03:34;26.10;99.50
17715;DHT22;8977;50.902;4.314;2023-06-10T09:06:04;26.20;99.70
17715;DHT22;8977;50.902;4.314;2023-06-10T09:08:31;26.20;99.50
17715;DHT22;8977;50.902;4.314;2023-06-10T09:11:00;26.30;99.30
17715;DHT22;8977;50.902;4.314;2023-06-10T09:13:26;26.30;98.70
17715;DHT22;8977;50.902;4.314;2023-06-10T09:15:53;26.30;98.70
17715;DHT22;8977;50.902;4.314;2023-06-10T09:18:22;26.40;98.80
17715;DHT22;8977;50.902;4.314;2023-06-10T09:20:50;26.40;98.40
17715;DHT22;8977;50.902;4.314;2023-06-10T09:23:17;26.50;98.40
17715;DHT22;8977;50.902;4.314;2023-06-10T09:25:44;26.50;98.60
17715;DHT22;8977;50.902;4.314;2023-06-10T09:28:14;26.60;98.90
17715;DHT22;8977;50.902;4.314;2023-06-10T09:30:41;26.60;99.00
17715;DHT22;8977;50.902;4.314;2023-06-10T09:33:12;26.70;98.80
17715;DHT22;8977;50.902;4.314;2023-06-10T09:35:45;26.70;98.50
17715;DHT22;8977;50.902;4.314;2023-06-10T09:38:15;26.70;99.10
17715;DHT22;8977;50.902;4.314;2023-06-10T09:40:49;26.80;98.60
17715;DHT22;8977;50.902;4.314;2023-06-10T09:43:17;26.80;98.30
17715;DHT22;8977;50.902;4.314;2023-06-10T09:45:44;26.90;98.10
17715;DHT22;8977;50.902;4.314;2023-06-10T09:48:13;26.90;97.90
17715;DHT22;8977;50.902;4.314;2023-06-10T09:50:42;26.90;97.80
17715;DHT22;8977;50.902;4.314;2023-06-10T09:53:10;27.00;97.80
17715;DHT22;8977;50.902;4.314;2023-06-10T09:55:39;27.10;97.80
17715;DHT22;8977;50.902;4.314;2023-06-10T09:58:06;27.10;96.70
17715;DHT22;8977;50.902;4.314;2023-06-10T10:00:34;27.10;97.10
17715;DHT22;8977;50.902;4.314;2023-06-10T10:03:01;27.20;97.20
17715;DHT22;8977;50.902;4.314;2023-06-10T10:05:29;27.20;97.30
17715;DHT22;8977;50.902;4.314;2023-06-10T10:07:56;27.30;97.10
17715;DHT22;8977;50.902;4.314;2023-06-10T10:10:23;27.30;96.90
17715;DHT22;8977;50.902;4.314;2023-06-10T10:12:54;27.30;96.60
17715;DHT22;8977;50.902;4.314;2023-06-10T10:15:24;27.40;96.70
17715;DHT22;8977;50.902;4.314;2023-06-10T10:17:59;27.40;96.10
17715;DHT22;8977;50.902;4.314;2023-06-10T10:20:29;27.50;96.60
17715;DHT22;8977;50.902;4.314;2023-06-10T10:22:58;27.50;96.10
17715;DHT22;8977;50.902;4.314;2023-06-10T10:25:28;27.60;96.10
17715;DHT22;8977;50.902;4.314;2023-06-10T10:28:07;27.60;95.70
17715;DHT22;8977;50.902;4.314;2023-06-10T10:30:39;27.60;95.30
17715;DHT22;8977;50.902;4.314;2023-06-10T10:33:11;27.70;95.20
17715;DHT22;8977;50.902;4.314;2023-06-10T10:35:39;27.70;95.20
17715;DHT22;8977;50.902;4.314;2023-06-10T10:38:07;27.80;95.30
17715;DHT22;8977;50.902;4.314;2023-06-10T10:40:35;27.80;95.40
17715;DHT22;8977;50.902;4.314;2023-06-10T10:43:04;27.90;95.50
17715;DHT22;8977;50.902;4.314;2023-06-10T10:45:33;28.00;95.40
17715;DHT22;8977;50.902;4.314;2023-06-10T10:48:06;28.00;95.00
17715;DHT22;8977;50.902;4.314;2023-06-10T10:50:37;28.00;94.20
17715;DHT22;8977;50.902;4.314;2023-06-10T10:53:05;28.10;93.50
17715;DHT22;8977;50.902;4.314;2023-06-10T10:55:32;28.10;93.00
17715;DHT22;8977;50.902;4.314;2023-06-10T10:58:06;28.20;92.40
17715;DHT22;8977;50.902;4.314;2023-06-10T11:00:34;28.20;93.00
17715;DHT22;8977;50.902;4.314;2023-06-10T11:03:05;28.30;93.40
17715;DHT22;8977;50.902;4.314;2023-06-10T11:05:38;28.40;93.40
17715;DHT22;8977;50.902;4.314;2023-06-10T11:08:05;28.40;93.90
17715;DHT22;8977;50.902;4.314;2023-06-10T11:10:34;28.40;93.90
17715;DHT22;8977;50.902;4.314;2023-06-10T11:13:07;28.50;93.50
17715;DHT22;8977;50.902;4.314;2023-06-10T11:15:39;28.50;93.60
17715;DHT22;8977;50.902;4.314;2023-06-10T11:18:11;28.60;93.00
17715;DHT22;8977;50.902;4.314;2023-06-10T11:20:45;28.60;93.10
17715;DHT22;8977;50.902;4.314;2023-06-10T11:23:25;28.60;93.10
17715;DHT22;8977;50.902;4.314;2023-06-10T11:26:18;28.60;92.50
17715;DHT22;8977;50.902;4.314;2023-06-10T11:29:06;28.70;92.40
17715;DHT22;8977;50.902;4.314;2023-06-10T11:31:38;28.70;92.80
17715;DHT22;8977;50.902;4.314;2023-06-10T11:34:06;28.80;92.60
17715;DHT22;8977;50.902;4.314;2023-06-10T11:36:34;28.80;92.60
17715;DHT22;8977;50.902;4.314;2023-06-10T11:39:03;28.80;92.30
17715;DHT22;8977;50.902;4.314;2023-06-10T11:41:31;28.80;92.20
17715;DHT22;8977;50.902;4.314;2023-06-10T11:44:02;28.80;92.20
17715;DHT22;8977;50.902;4.314;2023-06-10T11:46:30;28.80;92.70
17715;DHT22;8977;50.902;4.314;2023-06-10T11:48:58;28.90;92.50
17715;DHT22;8977;50.902;4.314;2023-06-10T11:51:27;28.90;92.40
17715;DHT22;8977;50.902;4.314;2023-06-10T11:53:55;29.00;92.20
17715;DHT22;8977;50.902;4.314;2023-06-10T11:56:22;29.00;92.20
17715;DHT22;8977;50.902;4.314;2023-06-10T11:58:52;29.10;92.00
17715;DHT22;8977;50.902;4.314;2023-06-10T12:01:20;29.20;91.80
17715;DHT22;8977;50.902;4.314;2023-06-10T12:03:56;29.20;92.20
17715;DHT22;8977;50.902;4.314;2023-06-10T12:06:23;29.30;91.70
17715;DHT22;8977;50.902;4.314;2023-06-10T12:08:53;29.30;91.80
17715;DHT22;8977;50.902;4.314;2023-06-10T12:11:20;29.40;91.70
17715;DHT22;8977;50.902;4.314;2023-06-10T12:13:48;29.40;91.50
17715;DHT22;8977;50.902;4.314;2023-06-10T12:16:15;29.30;91.50
17715;DHT22;8977;50.902;4.314;2023-06-10T12:18:43;29.40;91.80
17715;DHT22;8977;50.902;4.314;2023-06-10T12:21:24;29.40;92.10
17715;DHT22;8977;50.902;4.314;2023-06-10T12:24:04;29.40;91.30
17715;DHT22;8977;50.902;4.314;2023-06-10T12:26:36;29.30;91.80
17715;DHT22;8977;50.902;4.314;2023-06-10T12:29:15;29.30;91.90
17715;DHT22;8977;50.902;4.314;2023-06-10T12:31:58;29.40;92.40
17715;DHT22;8977;50.902;4.314;2023-06-10T12:34:33;29.50;92.10
17715;DHT22;8977;50.902;4.314;2023-06-10T12:37:04;29.50;92.20
17715;DHT22;8977;50.902;4.314;2023-06-10T12:39:33;29.60;92.10
17715;DHT22;8977;50.902;4.314;2023-06-10T12:42:01;29.70;92.40
17715;DHT22;8977;50.902;4.314;2023-06-10T12:44:29;29.70;91.90
17715;DHT22;8977;50.902;4.314;2023-06-10T12:46:56;29.70;91.30
17715;DHT22;8977;50.902;4.314;2023-06-10T12:49:25;29.70;91.60
17715;DHT22;8977;50.902;4.314;2023-06-10T12:51:52;29.70;92.10
17715;DHT22;8977;50.902;4.314;2023-06-10T12:54:20;29.80;91.50
17715;DHT22;8977;50.902;4.314;2023-06-10T12:56:48;29.90;91.00
17715;DHT22;8977;50.902;4.314;2023-06-10T12:59:15;29.90;91.10
17715;DHT22;8977;50.902;4.314;2023-06-10T13:01:42;29.90;91.30
17715;DHT22;8977;50.902;4.314;2023-06-10T13:04:09;30.10;91.30
17715;DHT22;8977;50.902;4.314;2023-06-10T13:06:36;30.10;91.50
17715;DHT22;8977;50.902;4.314;2023-06-10T13:09:05;30.20;91.40
17715;DHT22;8977;50.902;4.314;2023-06-10T13:11:34;30.20;90.90
17715;DHT22;8977;50.902;4.314;2023-06-10T13:14:02;30.30;91.10
17715;DHT22;8977;50.902;4.314;2023-06-10T13:16:30;30.30;90.90
17715;DHT22;8977;50.902;4.314;2023-06-10T13:18:58;30.40;90.60
17715;DHT22;8977;50.902;4.314;2023-06-10T13:21:24;30.40;90.90
17715;DHT22;8977;50.902;4.314;2023-06-10T13:23:51;30.40;90.60
17715;DHT22;8977;50.902;4.314;2023-06-10T13:26:18;30.50;90.50
17715;DHT22;8977;50.902;4.314;2023-06-10T13:28:47;30.50;90.60
17715;DHT22;8977;50.902;4.314;2023-06-10T13:31:14;30.50;90.50
17715;DHT22;8977;50.902;4.314;2023-06-10T13:33:40;30.50;90.20
17715;DHT22;8977;50.902;4.314;2023-06-10T13:36:09;30.60;90.40
17715;DHT22;8977;50.902;4.314;2023-06-10T13:38:36;30.60;90.60
17715;DHT22;8977;50.902;4.314;2023-06-10T13:41:03;30.60;90.90
17715;DHT22;8977;50.902;4.314;2023-06-10T13:43:31;30.60;91.50
17715;DHT22;8977;50.902;4.314;2023-06-10T13:45:59;30.60;90.70
17715;DHT22;8977;50.902;4.314;2023-06-10T13:48:26;30.60;90.10
17715;DHT22;8977;50.902;4.314;2023-06-10T13:50:53;30.60;90.40
17715;DHT22;8977;50.902;4.314;2023-06-10T13:53:20;30.60;89.60
17715;DHT22;8977;50.902;4.314;2023-06-10T13:55:47;30.60;89.70
17715;DHT22;8977;50.902;4.314;2023-06-10T13:58:14;30.60;89.00
17715;DHT22;8977;50.902;4.314;2023-06-10T14:00:41;30.50;89.10
17715;DHT22;8977;50.902;4.314;2023-06-10T14:03:09;30.50;90.10
17715;DHT22;8977;50.902;4.314;2023-06-10T14:05:36;30.40;89.60
17715;DHT22;8977;50.902;4.314;2023-06-10T14:08:04;30.40;89.90
17715;DHT22;8977;50.902;4.314;2023-06-10T14:10:31;30.40;90.10
17715;DHT22;8977;50.902;4.314;2023-06-10T14:12:58;30.40;90.00
17715;DHT22;8977;50.902;4.314;2023-06-10T14:15:25;30.40;89.80
17715;DHT22;8977;50.902;4.314;2023-06-10T14:17:52;30.40;88.90
17715;DHT22;8977;50.902;4.314;2023-06-10T14:20:21;30.40;89.80
17715;DHT22;8977;50.902;4.314;2023-06-10T14:22:48;30.30;90.10
17715;DHT22;8977;50.902;4.314;2023-06-10T14:25:15;30.40;90.10
17715;DHT22;8977;50.902;4.314;2023-06-10T14:27:43;30.20;89.60
17715;DHT22;8977;50.902;4.314;2023-06-10T14:30:10;30.10;89.90
17715;DHT22;8977;50.902;4.314;2023-06-10T14:32:37;30.10;90.10
17715;DHT22;8977;50.902;4.314;2023-06-10T14:35:05;30.00;90.10
17715;DHT22;8977;50.902;4.314;2023-06-10T14:37:33;30.10;90.30
17715;DHT22;8977;50.902;4.314;2023-06-10T14:40:00;30.10;90.50
17715;DHT22;8977;50.902;4.314;2023-06-10T14:42:27;30.10;90.60
17715;DHT22;8977;50.902;4.314;2023-06-10T14:44:54;30.10;90.80
17715;DHT22;8977;50.902;4.314;2023-06-10T14:47:21;30.10;90.70
17715;DHT22;8977;50.902;4.314;2023-06-10T14:49:48;30.20;90.90
17715;DHT22;8977;50.902;4.314;2023-06-10T14:52:15;30.20;90.40
17715;DHT22;8977;50.902;4.314;2023-06-10T14:54:44;30.20;90.30
17715;DHT22;8977;50.902;4.314;2023-06-10T14:57:11;30.10;90.30
17715;DHT22;8977;50.902;4.314;2023-06-10T14:59:37;30.20;90.80
17715;DHT22;8977;50.902;4.314;2023-06-10T15:02:05;30.20;90.70
17715;DHT22;8977;50.902;4.314;2023-06-10T15:04:32;30.30;90.40
17715;DHT22;8977;50.902;4.314;2023-06-10T15:07:00;30.40;90.60
17715;DHT22;8977;50.902;4.314;2023-06-10T15:09:27;30.40;90.10
17715;DHT22;8977;50.902;4.314;2023-06-10T15:11:55;30.30;90.00
17715;DHT22;8977;50.902;4.314;2023-06-10T15:14:22;30.30;90.20
17715;DHT22;8977;50.902;4.314;2023-06-10T15:16:49;30.30;90.20
17715;DHT22;8977;50.902;4.314;2023-06-10T15:19:16;30.30;90.30
17715;DHT22;8977;50.902;4.314;2023-06-10T15:21:43;30.30;90.20
17715;DHT22;8977;50.902;4.314;2023-06-10T15:24:10;30.40;91.10
17715;DHT22;8977;50.902;4.314;2023-06-10T15:26:37;30.50;90.00
17715;DHT22;8977;50.902;4.314;2023-06-10T15:29:05;30.50;90.00
17715;DHT22;8977;50.902;4.314;2023-06-10T15:31:32;30.60;90.30
17715;DHT22;8977;50.902;4.314;2023-06-10T15:34:00;30.50;89.40
17715;DHT22;8977;50.902;4.314;2023-06-10T15:36:27;30.60;89.90
17715;DHT22;8977;50.902;4.314;2023-06-10T15:38:54;30.60;90.10
17715;DHT22;8977;50.902;4.314;2023-06-10T15:41:21;30.60;89.70
17715;DHT22;8977;50.902;4.314;2023-06-10T15:43:48;30.60;89.70
17715;DHT22;8977;50.902;4.314;2023-06-10T15:46:17;30.70;90.10
17715;DHT22;8977;50.902;4.314;2023-06-10T15:48:43;30.70;90.00
17715;DHT22;8977;50.902;4.314;2023-06-10T15:51:10;30.80;90.70